^^
Station Historical Data
Daily Summary for February 22, 2017 Units:  English    Metric   Both
« Previous Day
Next Day »
Daily Weekly Monthly Yearly Custom
  High: Low: Average:
Temperature: 60.5 °F 39.8 °F 47 °F
Dew Point: 43.9 °F 33.9 °F 38.4 °F
Humidity: 86 % 53 % 73 %
Wind Speed: 6.1 mph 0.0 mph 0.4 mph
Wind Gust: 8.1 mph - -
Wind:- - WSW
Pressure: 30.12 in 29.90 in -
Precipitation: 0.00 in    
Historical Graphs
 
 
Tabular Data for February 22, 2017
Time Temperature Dew Point Pressure Wind Wind Speed Wind Gust Humidity Rainfall Rate (Hourly) solar Conditions
00:02 41.7 °F 34.4 °F 30.12 in Calm   2.3 mph 75 % 0.00 in 0.0 W/m2 FEW
00:07 41.7 °F 34.4 °F 30.12 in Calm   1.2 mph 75 % 0.00 in 0.0 W/m2 FEW
00:12 41.7 °F 34.4 °F 30.12 in Calm   2.3 mph 75 % 0.00 in 0.0 W/m2 FEW
00:18 41.7 °F 34.4 °F 30.11 in Calm     75 % 0.00 in 0.0 W/m2 FEW
00:23 41.7 °F 34.4 °F 30.11 in Calm   1.2 mph 75 % 0.00 in 0.0 W/m2 FEW
00:28 41.5 °F 34.2 °F 30.11 in Calm     75 % 0.00 in 0.0 W/m2 FEW
00:33 41.3 °F 34.0 °F 30.11 in Calm     75 % 0.00 in 0.0 W/m2 FEW
00:38 41.2 °F 34.2 °F 30.10 in Calm     76 % 0.00 in 0.0 W/m2 FEW
00:43 41.2 °F 34.2 °F 30.10 in Calm     76 % 0.00 in 0.0 W/m2 FEW
00:48 41.2 °F 34.2 °F 30.10 in Calm     76 % 0.00 in 0.0 W/m2 FEW
00:53 41.0 °F 34.0 °F 30.10 in Calm     76 % 0.00 in 0.0 W/m2 FEW
00:58 41.0 °F 34.0 °F 30.10 in Calm     76 % 0.00 in 0.0 W/m2 FEW
01:03 41.1 °F 34.1 °F 30.10 in Calm     76 % 0.00 in 0.0 W/m2 FEW
01:08 41.0 °F 34.0 °F 30.10 in Calm     76 % 0.00 in 0.0 W/m2 FEW
01:13 40.9 °F 34.2 °F 30.09 in Calm     77 % 0.00 in 0.0 W/m2 FEW
01:18 41.0 °F 34.3 °F 30.09 in Calm     77 % 0.00 in 0.0 W/m2 FEW
01:23 40.8 °F 34.1 °F 30.09 in Calm     77 % 0.00 in 0.0 W/m2 FEW
01:28 40.7 °F 34.0 °F 30.09 in Calm     77 % 0.00 in 0.0 W/m2 FEW
01:33 40.7 °F 34.0 °F 30.09 in Calm     77 % 0.00 in 0.0 W/m2 FEW
01:38 40.8 °F 34.1 °F 30.08 in Calm     77 % 0.00 in 0.0 W/m2 FEW
01:43 40.7 °F 34.0 °F 30.08 in Calm     77 % 0.00 in 0.0 W/m2 FEW
01:48 40.5 °F 33.9 °F 30.07 in Calm     77 % 0.00 in 0.0 W/m2 FEW
01:53 40.3 °F 34.0 °F 30.07 in Calm     78 % 0.00 in 0.0 W/m2 FEW
01:58 40.3 °F 34.0 °F 30.07 in Calm     78 % 0.00 in 0.0 W/m2 FEW
02:03 40.1 °F 34.1 °F 30.07 in Calm     79 % 0.00 in 0.0 W/m2 FEW
02:08 40.1 °F 34.1 °F 30.08 in Calm     79 % 0.00 in 0.0 W/m2 FEW
02:13 40.3 °F 34.3 °F 30.08 in Calm     79 % 0.00 in 0.0 W/m2 FEW
02:18 40.3 °F 34.3 °F 30.08 in Calm     79 % 0.00 in 0.0 W/m2 FEW
02:23 40.2 °F 34.2 °F 30.08 in Calm     79 % 0.00 in 0.0 W/m2 FEW
02:28 40.2 °F 34.2 °F 30.08 in Calm     79 % 0.00 in 0.0 W/m2 FEW
02:33 40.2 °F 34.2 °F 30.08 in Calm     79 % 0.00 in 0.0 W/m2 FEW
02:38 40.3 °F 34.3 °F 30.08 in Calm     79 % 0.00 in 0.0 W/m2 FEW
02:43 40.4 °F 34.4 °F 30.08 in Calm     79 % 0.00 in 0.0 W/m2 FEW
02:48 40.4 °F 34.4 °F 30.08 in Calm     79 % 0.00 in 0.0 W/m2 FEW
02:53 40.3 °F 34.3 °F 30.08 in Calm     79 % 0.00 in 0.0 W/m2 FEW
02:58 40.3 °F 34.3 °F 30.08 in Calm     79 % 0.00 in 0.0 W/m2 FEW
03:03 40.4 °F 34.4 °F 30.07 in Calm     79 % 0.00 in 0.0 W/m2 FEW
03:08 40.4 °F 34.4 °F 30.07 in Calm     79 % 0.00 in 0.0 W/m2 FEW
03:13 40.4 °F 34.4 °F 30.07 in Calm     79 % 0.00 in 0.0 W/m2 FEW
03:18 40.5 °F 34.5 °F 30.06 in Calm     79 % 0.00 in 0.0 W/m2 FEW
03:23 40.6 °F 34.6 °F 30.06 in Calm     79 % 0.00 in 0.0 W/m2 FEW
03:28 40.5 °F 34.5 °F 30.06 in Calm     79 % 0.00 in 0.0 W/m2 FEW
03:34 40.5 °F 34.5 °F 30.06 in Calm     79 % 0.00 in 0.0 W/m2 FEW
03:39 40.5 °F 34.5 °F 30.06 in Calm     79 % 0.00 in 0.0 W/m2 FEW
03:44 40.4 °F 34.4 °F 30.06 in Calm     79 % 0.00 in 0.0 W/m2 FEW
03:49 40.3 °F 34.6 °F 30.06 in Calm     80 % 0.00 in 0.0 W/m2 FEW
03:54 40.1 °F 34.4 °F 30.06 in Calm     80 % 0.00 in 0.0 W/m2 FEW
03:59 40.1 °F 34.4 °F 30.06 in Calm     80 % 0.00 in 0.0 W/m2 FEW
04:04 40.1 °F 34.4 °F 30.06 in Calm     80 % 0.00 in 0.0 W/m2 FEW
04:09 40.0 °F 34.3 °F 30.06 in Calm     80 % 0.00 in 0.0 W/m2 FEW
04:14 40.0 °F 34.3 °F 30.06 in Calm     80 % 0.00 in 0.0 W/m2 FEW
04:19 40.1 °F 34.7 °F 30.06 in Calm     81 % 0.00 in 0.0 W/m2 FEW
04:24 40.2 °F 34.8 °F 30.06 in Calm     81 % 0.00 in 0.0 W/m2 FEW
04:29 40.2 °F 34.8 °F 30.06 in Calm     81 % 0.00 in 0.0 W/m2 FEW
04:34 40.1 °F 34.7 °F 30.06 in Calm     81 % 0.00 in 0.0 W/m2 FEW
04:39 40.0 °F 34.9 °F 30.06 in Calm     82 % 0.00 in 0.0 W/m2 FEW
04:44 39.9 °F 34.9 °F 30.06 in Calm     82 % 0.00 in 0.0 W/m2 FEW
04:49 39.9 °F 34.9 °F 30.06 in Calm     82 % 0.00 in 0.0 W/m2 FEW
04:54 40.0 °F 34.9 °F 30.06 in Calm     82 % 0.00 in 0.0 W/m2 FEW
04:59 40.1 °F 35.0 °F 30.06 in Calm     82 % 0.00 in 0.0 W/m2 FEW
05:04 40.1 °F 35.0 °F 30.06 in Calm     82 % 0.00 in 0.0 W/m2 FEW
05:09 40.0 °F 34.9 °F 30.06 in Calm     82 % 0.00 in 0.0 W/m2 FEW
05:14 40.0 °F 34.9 °F 30.06 in Calm     82 % 0.00 in 0.0 W/m2 FEW
05:19 39.9 °F 34.9 °F 30.06 in Calm     82 % 0.00 in 0.0 W/m2 FEW
05:24 39.8 °F 34.8 °F 30.06 in Calm     82 % 0.00 in 0.0 W/m2 FEW
05:29 39.8 °F 34.8 °F 30.06 in Calm     82 % 0.00 in 0.0 W/m2 FEW
05:34 39.9 °F 34.9 °F 30.06 in Calm     82 % 0.00 in 0.0 W/m2 FEW
05:39 39.8 °F 35.1 °F 30.06 in Calm     83 % 0.00 in 0.0 W/m2 FEW
05:44 39.9 °F 35.2 °F 30.06 in SSW 0.8 mph 2.3 mph 83 % 0.00 in 0.0 W/m2 FEW
05:49 39.9 °F 35.2 °F 30.06 in Calm     83 % 0.00 in 0.0 W/m2 FEW
05:54 39.9 °F 35.2 °F 30.07 in Calm     83 % 0.00 in 0.0 W/m2 FEW
05:59 40.1 °F 35.4 °F 30.07 in Calm     83 % 0.00 in 0.0 W/m2 FEW
06:04 40.0 °F 35.3 °F 30.06 in Calm     83 % 0.00 in 0.0 W/m2 FEW
06:09 39.9 °F 35.2 °F 30.06 in Calm     83 % 0.00 in 0.0 W/m2 FEW
06:14 39.9 °F 35.2 °F 30.05 in Calm     83 % 0.00 in 0.0 W/m2 FEW
06:19 40.0 °F 35.3 °F 30.05 in Calm     83 % 0.00 in 0.0 W/m2 FEW
06:24 40.0 °F 35.3 °F 30.05 in Calm     83 % 0.00 in 0.0 W/m2 FEW
06:29 40.0 °F 35.3 °F 30.05 in Calm     83 % 0.00 in 0.0 W/m2 FEW
06:34 39.9 °F 35.2 °F 30.05 in Calm     83 % 0.00 in 0.0 W/m2 FEW
06:39 39.9 °F 35.2 °F 30.05 in Calm     83 % 0.00 in 0.0 W/m2 FEW
06:44 40.0 °F 35.3 °F 30.05 in Calm     83 % 0.00 in 0.0 W/m2 FEW
06:49 40.0 °F 35.3 °F 30.05 in Calm     83 % 0.00 in 0.0 W/m2 FEW
06:54 40.1 °F 35.4 °F 30.05 in Calm     83 % 0.00 in 0.0 W/m2 FEW
06:59 40.1 °F 35.4 °F 30.05 in SSW 0.1 mph 1.0 mph 83 % 0.00 in 0.0 W/m2 FEW
07:04 40.0 °F 35.3 °F 30.06 in Calm     83 % 0.00 in 5.0 W/m2 FEW
07:09 40.0 °F 35.3 °F 30.06 in Calm     83 % 0.00 in 7.0 W/m2 FEW
07:14 40.1 °F 35.4 °F 30.06 in Calm     83 % 0.00 in 9.0 W/m2 FEW
07:19 40.0 °F 35.3 °F 30.06 in Calm     83 % 0.00 in 11.0 W/m2 FEW
07:24 40.2 °F 35.4 °F 30.06 in Calm     83 % 0.00 in 14.0 W/m2 FEW
07:29 40.4 °F 35.6 °F 30.06 in SSW 0.1 mph   83 % 0.00 in 16.0 W/m2 FEW
07:34 40.4 °F 35.6 °F 30.06 in SSW 0.9 mph 2.3 mph 83 % 0.00 in 19.0 W/m2 BKN
07:39 40.4 °F 35.6 °F 30.06 in SSW 0.6 mph 2.3 mph 83 % 0.00 in 23.0 W/m2 BKN
07:44 40.4 °F 35.3 °F 30.06 in Calm     82 % 0.00 in 28.0 W/m2 BKN
07:49 40.4 °F 35.3 °F 30.06 in Calm     82 % 0.00 in 35.0 W/m2 BKN
07:54 40.5 °F 35.4 °F 30.06 in Calm     82 % 0.00 in 42.0 W/m2 BKN
08:00 40.7 °F 35.6 °F 30.06 in Calm     82 % 0.00 in 47.0 W/m2 BKN
08:05 40.7 °F 35.6 °F 30.06 in Calm     82 % 0.00 in 49.0 W/m2 BKN
08:10 40.7 °F 35.6 °F 30.05 in Calm     82 % 0.00 in 53.0 W/m2 BKN
08:15 40.7 °F 35.6 °F 30.06 in Calm     82 % 0.00 in 54.0 W/m2 BKN
08:20 40.7 °F 35.6 °F 30.06 in Calm     82 % 0.00 in 62.0 W/m2 BKN
08:25 40.9 °F 35.8 °F 30.06 in Calm     82 % 0.00 in 69.0 W/m2 BKN
08:30 41.1 °F 36.0 °F 30.06 in Calm     82 % 0.00 in 72.0 W/m2 BKN
08:35 41.3 °F 36.2 °F 30.06 in Calm     82 % 0.00 in 74.0 W/m2 BKN
08:40 41.3 °F 36.2 °F 30.06 in Calm     82 % 0.00 in 79.0 W/m2 BKN
08:45 41.5 °F 36.4 °F 30.05 in Calm     82 % 0.00 in 88.0 W/m2 BKN
08:50 41.6 °F 36.2 °F 30.05 in Calm     81 % 0.00 in 90.0 W/m2 BKN
08:55 41.8 °F 36.4 °F 30.05 in Calm     81 % 0.00 in 91.0 W/m2 BKN
09:01 41.8 °F 36.4 °F 30.05 in Calm     81 % 0.00 in 97.0 W/m2 BKN
09:06 42.1 °F 36.7 °F 30.05 in Calm     81 % 0.00 in 109.0 W/m2 BKN
09:11 42.3 °F 36.9 °F 30.05 in Calm     81 % 0.00 in 114.0 W/m2 BKN
09:16 42.4 °F 36.7 °F 30.05 in Calm     80 % 0.00 in 118.0 W/m2 BKN
09:21 42.6 °F 36.9 °F 30.05 in Calm     80 % 0.00 in 128.0 W/m2 BKN
09:26 42.7 °F 36.6 °F 30.04 in Calm     79 % 0.00 in 123.0 W/m2 BKN
09:31 42.8 °F 36.7 °F 30.04 in Calm     79 % 0.00 in 144.0 W/m2 BKN
09:36 43.1 °F 37.0 °F 30.04 in Calm     79 % 0.00 in 165.0 W/m2 BKN
09:41 43.2 °F 37.1 °F 30.04 in Calm     79 % 0.00 in 181.0 W/m2 BKN
09:46 43.4 °F 37.0 °F 30.04 in SSW 1.4 mph 2.3 mph 78 % 0.00 in 204.0 W/m2 SCT
09:51 43.7 °F 37.3 °F 30.04 in SSW 2.0 mph 3.5 mph 78 % 0.00 in 199.0 W/m2 SCT
09:56 43.5 °F 37.1 °F 30.04 in Calm     78 % 0.00 in 199.0 W/m2 BKN
10:01 43.7 °F 37.0 °F 30.04 in Calm     77 % 0.00 in 193.0 W/m2 BKN
10:06 44.1 °F 37.3 °F 30.04 in Calm     77 % 0.00 in 197.0 W/m2 BKN
10:11 44.3 °F 37.5 °F 30.03 in SSW 1.9 mph 3.5 mph 77 % 0.00 in 214.0 W/m2 BKN
10:16 44.2 °F 37.1 °F 30.03 in SSW 0.1 mph 1.2 mph 76 % 0.00 in 230.0 W/m2 SCT
10:21 44.5 °F 37.7 °F 30.03 in SSW 1.2 mph 3.5 mph 77 % 0.00 in 246.0 W/m2 SCT
10:26 44.6 °F 37.5 °F 30.03 in Calm   1.2 mph 76 % 0.00 in 248.0 W/m2 SCT
10:31 44.7 °F 37.6 °F 30.03 in Calm     76 % 0.00 in 258.0 W/m2 SCT
10:36 45.1 °F 37.6 °F 30.03 in Calm   1.0 mph 75 % 0.00 in 251.0 W/m2 SCT
10:41 45.2 °F 37.7 °F 30.03 in WSW 2.3 mph 5.0 mph 75 % 0.00 in 232.0 W/m2 BKN
10:46 45.9 °F 38.4 °F 30.03 in Calm     75 % 0.00 in 241.0 W/m2 BKN
10:51 46.0 °F 38.2 °F 30.03 in WSW 0.1 mph   74 % 0.00 in 239.0 W/m2 BKN
10:56 46.0 °F 38.2 °F 30.02 in Calm     74 % 0.00 in 241.0 W/m2 BKN
11:01 46.4 °F 38.9 °F 30.02 in WSW 0.9 mph 3.5 mph 75 % 0.00 in 243.0 W/m2 BKN
11:06 46.3 °F 38.1 °F 30.02 in Calm     73 % 0.00 in 255.0 W/m2 BKN
11:11 46.6 °F 38.8 °F 30.02 in Calm   1.2 mph 74 % 0.00 in 271.0 W/m2 SCT
11:16 46.8 °F 38.6 °F 30.02 in West 2.5 mph 3.5 mph 73 % 0.00 in 299.0 W/m2 SCT
11:21 47.1 °F 38.9 °F 30.02 in West 1.1 mph 3.0 mph 73 % 0.00 in 290.0 W/m2 SCT
11:26 47.3 °F 39.1 °F 30.01 in West 2.2 mph 3.5 mph 73 % 0.00 in 323.0 W/m2 SCT
11:31 48.3 °F 39.7 °F 30.01 in WNW 3.3 mph 3.5 mph 72 % 0.00 in 309.0 W/m2 SCT
11:36 48.1 °F 39.1 °F 30.01 in West 2.6 mph 3.5 mph 71 % 0.00 in 287.0 W/m2 SCT
11:41 48.0 °F 39.0 °F 30.00 in West 0.5 mph 3.5 mph 71 % 0.00 in 283.0 W/m2 SCT
11:46 48.3 °F 39.3 °F 30.00 in West 4.5 mph 6.9 mph 71 % 0.00 in 295.0 W/m2 SCT
11:51 48.3 °F 39.3 °F 30.00 in West 2.0 mph 3.5 mph 71 % 0.00 in 283.0 W/m2 SCT
11:56 48.5 °F 39.2 °F 30.00 in SW 0.1 mph 3.5 mph 70 % 0.00 in 269.0 W/m2 BKN
12:01 48.7 °F 39.4 °F 29.99 in SW 3.2 mph 4.6 mph 70 % 0.00 in 330.0 W/m2 SCT
12:07 48.9 °F 39.5 °F 29.98 in SW 0.2 mph 2.3 mph 70 % 0.00 in 510.0 W/m2 FEW
12:12 49.5 °F 39.4 °F 29.98 in SSW 0.6 mph 3.5 mph 68 % 0.00 in 497.0 W/m2 CLR
12:17 49.9 °F 39.8 °F 29.97 in SSW 1.4 mph 3.5 mph 68 % 0.00 in 606.0 W/m2 CLR
12:22 50.2 °F 40.0 °F 29.97 in Calm   1.2 mph 68 % 0.00 in 594.0 W/m2 CLR
12:27 51.2 °F 40.2 °F 29.97 in WNW 2.2 mph 5.8 mph 66 % 0.00 in 601.0 W/m2 CLR
12:32 51.4 °F 40.4 °F 29.97 in Calm   2.3 mph 66 % 0.00 in 529.0 W/m2 CLR
12:37 51.8 °F 40.8 °F 29.97 in WNW 2.3 mph 3.5 mph 66 % 0.00 in 554.0 W/m2 CLR
12:42 53.2 °F 41.7 °F 29.96 in NW 1.5 mph 3.0 mph 65 % 0.00 in 541.0 W/m2 CLR
12:47 53.3 °F 41.0 °F 29.96 in Calm   1.2 mph 63 % 0.00 in 571.0 W/m2 CLR
12:52 52.7 °F 40.9 °F 29.95 in West 2.2 mph 3.5 mph 64 % 0.00 in 640.0 W/m2 CLR
12:57 53.0 °F 41.1 °F 29.95 in West 0.3 mph 1.2 mph 64 % 0.00 in 573.0 W/m2 CLR
13:02 53.2 °F 41.3 °F 29.95 in WNW 1.1 mph 3.5 mph 64 % 0.00 in 513.0 W/m2 CLR
13:07 54.0 °F 41.3 °F 29.94 in West 0.2 mph 1.2 mph 62 % 0.00 in 499.0 W/m2 CLR
13:12 54.3 °F 41.6 °F 29.94 in NW 1.7 mph 3.5 mph 62 % 0.00 in 559.0 W/m2 CLR
13:17 54.7 °F 41.5 °F 29.94 in West 0.7 mph 3.5 mph 61 % 0.00 in 633.0 W/m2 CLR
13:22 54.8 °F 41.6 °F 29.94 in West 0.1 mph 1.2 mph 61 % 0.00 in 636.0 W/m2 CLR
13:27 55.7 °F 42.5 °F 29.94 in Calm     61 % 0.00 in 656.0 W/m2 CLR
13:32 56.7 °F 42.1 °F 29.94 in NW 2.8 mph 6.9 mph 58 % 0.00 in 561.0 W/m2 CLR
13:37 56.6 °F 42.4 °F 29.94 in Calm     59 % 0.00 in 587.0 W/m2 CLR
13:42 56.5 °F 42.3 °F 29.93 in WNW 0.3 mph 2.0 mph 59 % 0.00 in 599.0 W/m2 CLR
13:47 56.4 °F 42.2 °F 29.93 in Calm     59 % 0.00 in 568.0 W/m2 CLR
13:52 56.3 °F 42.1 °F 29.93 in WSW 0.1 mph 3.5 mph 59 % 0.00 in 563.0 W/m2 CLR
13:57 56.9 °F 42.3 °F 29.93 in WSW 3.4 mph 5.8 mph 58 % 0.00 in 531.0 W/m2 CLR
14:02 57.1 °F 42.5 °F 29.93 in Calm   1.2 mph 58 % 0.00 in 522.0 W/m2 CLR
14:07 57.9 °F 42.3 °F 29.93 in WSW 0.4 mph 3.5 mph 56 % 0.00 in 478.0 W/m2 CLR
14:12 57.9 °F 42.3 °F 29.93 in West 3.8 mph 5.8 mph 56 % 0.00 in 360.0 W/m2 FEW
14:17 57.7 °F 42.1 °F 29.92 in West 2.5 mph 5.8 mph 56 % 0.00 in 531.0 W/m2 CLR
14:22 58.7 °F 43.0 °F 29.92 in Calm     56 % 0.00 in 529.0 W/m2 CLR
14:27 58.6 °F 42.5 °F 29.92 in WSW 3.7 mph 5.8 mph 55 % 0.00 in 473.0 W/m2 CLR
14:32 58.2 °F 42.6 °F 29.92 in WSW 3.3 mph 8.1 mph 56 % 0.00 in 399.0 W/m2 CLR
14:37 58.3 °F 42.7 °F 29.92 in WSW 3.2 mph 8.0 mph 56 % 0.00 in 248.0 W/m2 SCT
14:42 58.1 °F 42.5 °F 29.92 in SW 3.4 mph 4.6 mph 56 % 0.00 in 257.0 W/m2 SCT
14:48 57.9 °F 42.8 °F 29.92 in SW 2.4 mph 4.6 mph 57 % 0.00 in 218.0 W/m2 SCT
14:53 58.1 °F 42.9 °F 29.92 in SW 1.2 mph 3.5 mph 57 % 0.00 in 262.0 W/m2 SCT
14:58 58.0 °F 42.8 °F 29.91 in Calm   3.5 mph 57 % 0.00 in 311.0 W/m2 FEW
15:03 58.3 °F 43.1 °F 29.91 in WSW 3.4 mph 3.5 mph 57 % 0.00 in 264.0 W/m2 FEW
15:08 58.4 °F 42.8 °F 29.91 in SSW 1.6 mph 2.3 mph 56 % 0.00 in 267.0 W/m2 FEW
15:13 58.6 °F 42.5 °F 29.91 in WSW 4.0 mph 5.8 mph 55 % 0.00 in 255.0 W/m2 FEW
15:18 58.6 °F 42.9 °F 29.91 in Calm   3.5 mph 56 % 0.00 in 237.0 W/m2 FEW
15:24 58.6 °F 42.9 °F 29.91 in WSW 0.3 mph 2.3 mph 56 % 0.00 in 214.0 W/m2 SCT
15:29 58.8 °F 43.1 °F 29.91 in Calm   1.2 mph 56 % 0.00 in 338.0 W/m2 CLR
15:34 60.1 °F 43.9 °F 29.91 in WNW 1.7 mph 3.5 mph 55 % 0.00 in 457.0 W/m2 CLR
15:39 59.9 °F 43.2 °F 29.91 in WSW 3.2 mph 6.9 mph 54 % 0.00 in 464.0 W/m2 CLR
15:44 59.8 °F 43.1 °F 29.91 in WNW 0.5 mph 1.0 mph 54 % 0.00 in 267.0 W/m2 CLR
15:49 59.9 °F 43.2 °F 29.91 in WSW 6.1 mph 6.9 mph 54 % 0.00 in 387.0 W/m2 CLR
15:54 60.0 °F 43.3 °F 29.91 in West 0.5 mph 2.3 mph 54 % 0.00 in 378.0 W/m2 CLR
15:59 60.3 °F 43.1 °F 29.91 in SW 1.8 mph 3.5 mph 53 % 0.00 in 206.0 W/m2 CLR
16:04 60.0 °F 43.3 °F 29.91 in WSW 1.8 mph 3.5 mph 54 % 0.00 in 155.0 W/m2 CLR
16:09 59.7 °F 43.0 °F 29.91 in WSW 1.4 mph 2.3 mph 54 % 0.00 in 153.0 W/m2 SCT
16:14 59.8 °F 43.1 °F 29.91 in West 0.6 mph 2.0 mph 54 % 0.00 in 162.0 W/m2 FEW
16:19 60.3 °F 43.6 °F 29.91 in WNW 0.2 mph 3.5 mph 54 % 0.00 in 181.0 W/m2 CLR
16:24 60.1 °F 42.9 °F 29.91 in WSW 2.4 mph 5.8 mph 53 % 0.00 in 169.0 W/m2 CLR
16:29 60.1 °F 43.4 °F 29.91 in WSW 0.3 mph 2.3 mph 54 % 0.00 in 244.0 W/m2 CLR
16:34 60.5 °F 43.3 °F 29.91 in West 1.0 mph 3.5 mph 53 % 0.00 in 225.0 W/m2 CLR
16:39 60.5 °F 43.3 °F 29.91 in SW 3.8 mph 6.9 mph 53 % 0.00 in 151.0 W/m2 CLR
16:44 60.2 °F 43.0 °F 29.91 in SW 0.5 mph 3.5 mph 53 % 0.00 in 90.0 W/m2 FEW
16:49 60.1 °F 43.4 °F 29.91 in SW 0.5 mph 2.3 mph 54 % 0.00 in 77.0 W/m2 FEW
16:54 59.9 °F 43.2 °F 29.91 in WSW 1.5 mph 3.5 mph 54 % 0.00 in 54.0 W/m2 SCT
16:59 59.6 °F 42.9 °F 29.91 in Calm     54 % 0.00 in 53.0 W/m2 SCT
17:04 59.5 °F 43.3 °F 29.90 in WSW 0.8 mph 3.5 mph 55 % 0.00 in 53.0 W/m2 FEW
17:09 59.3 °F 43.1 °F 29.90 in Calm     55 % 0.00 in 47.0 W/m2 FEW
17:14 59.1 °F 42.9 °F 29.90 in Calm     55 % 0.00 in 35.0 W/m2 SCT
17:19 59.0 °F 43.3 °F 29.90 in Calm     56 % 0.00 in 28.0 W/m2 SCT
17:24 58.8 °F 43.1 °F 29.90 in Calm     56 % 0.00 in 21.0 W/m2 FEW
17:29 58.6 °F 42.9 °F 29.90 in Calm     56 % 0.00 in 14.0 W/m2 SCT
17:34 58.4 °F 42.8 °F 29.90 in Calm     56 % 0.00 in 9.0 W/m2 SCT
17:39 58.3 °F 43.1 °F 29.90 in Calm     57 % 0.00 in 5.0 W/m2 CLR
17:44 57.9 °F 42.8 °F 29.90 in Calm     57 % 0.00 in 0.0 W/m2 CLR
17:49 57.6 °F 42.9 °F 29.90 in Calm     58 % 0.00 in 0.0 W/m2 CLR
17:54 57.4 °F 43.2 °F 29.90 in Calm     59 % 0.00 in 0.0 W/m2 CLR
17:59 56.8 °F 42.6 °F 29.90 in Calm     59 % 0.00 in 0.0 W/m2 CLR
18:04 56.4 °F 42.7 °F 29.90 in Calm     60 % 0.00 in 0.0 W/m2 CLR
18:10 56.0 °F 42.7 °F 29.90 in Calm     61 % 0.00 in 0.0 W/m2 CLR
18:15 55.5 °F 42.3 °F 29.90 in Calm     61 % 0.00 in 0.0 W/m2 CLR
18:20 55.0 °F 42.2 °F 29.90 in Calm     62 % 0.00 in 0.0 W/m2 CLR
18:25 54.6 °F 42.3 °F 29.90 in Calm     63 % 0.00 in 0.0 W/m2 CLR
18:30 54.5 °F 42.6 °F 29.91 in Calm     64 % 0.00 in 0.0 W/m2 CLR
18:35 53.9 °F 42.4 °F 29.91 in Calm     65 % 0.00 in 0.0 W/m2 CLR
18:40 53.2 °F 42.1 °F 29.92 in Calm     66 % 0.00 in 0.0 W/m2 CLR
18:45 53.0 °F 42.3 °F 29.91 in Calm     67 % 0.00 in 0.0 W/m2 CLR
18:50 53.0 °F 42.4 °F 29.91 in Calm     67 % 0.00 in 0.0 W/m2 CLR
18:55 52.9 °F 42.2 °F 29.91 in Calm     67 % 0.00 in 0.0 W/m2 CLR
19:00 52.5 °F 41.9 °F 29.91 in Calm     67 % 0.00 in 0.0 W/m2 CLR
19:05 52.3 °F 42.0 °F 29.91 in Calm     68 % 0.00 in 0.0 W/m2 CLR
19:10 52.0 °F 41.8 °F 29.91 in Calm     68 % 0.00 in 0.0 W/m2 CLR
19:15 51.6 °F 41.8 °F 29.91 in Calm     69 % 0.00 in 0.0 W/m2 CLR
19:20 51.5 °F 41.7 °F 29.91 in Calm     69 % 0.00 in 0.0 W/m2 CLR
19:25 51.3 °F 41.8 °F 29.91 in Calm     70 % 0.00 in 0.0 W/m2 CLR
19:30 51.2 °F 41.7 °F 29.91 in Calm     70 % 0.00 in 0.0 W/m2 CLR
19:35 50.7 °F 41.3 °F 29.91 in Calm     70 % 0.00 in 0.0 W/m2 CLR
19:40 50.6 °F 41.5 °F 29.91 in Calm     71 % 0.00 in 0.0 W/m2 CLR
19:45 50.5 °F 41.4 °F 29.91 in Calm     71 % 0.00 in 0.0 W/m2 CLR
19:50 50.3 °F 41.3 °F 29.91 in Calm     71 % 0.00 in 0.0 W/m2 CLR
19:51 50.2 °F 41.5 °F 29.91 in Calm     72 % 0.00 in 0.0 W/m2 CLR
19:56 49.6 °F 40.9 °F 29.92 in Calm     72 % 0.00 in 0.0 W/m2 CLR
20:01 49.8 °F 41.5 °F 29.92 in Calm     73 % 0.00 in 0.0 W/m2 CLR
20:06 49.6 °F 41.3 °F 29.92 in Calm     73 % 0.00 in 0.0 W/m2 CLR
20:11 49.2 °F 40.9 °F 29.92 in Calm     73 % 0.00 in 0.0 W/m2 CLR
20:16 48.7 °F 40.8 °F 29.92 in Calm     74 % 0.00 in 0.0 W/m2 CLR
20:21 48.6 °F 40.7 °F 29.92 in Calm     74 % 0.00 in 0.0 W/m2 CLR
20:26 48.3 °F 40.4 °F 29.92 in Calm     74 % 0.00 in 0.0 W/m2 CLR
20:31 48.1 °F 40.5 °F 29.92 in Calm     75 % 0.00 in 0.0 W/m2 CLR
20:36 47.9 °F 40.7 °F 29.91 in Calm     76 % 0.00 in 0.0 W/m2 CLR
20:42 47.8 °F 40.9 °F 29.92 in Calm     77 % 0.00 in 0.0 W/m2 CLR
20:47 47.8 °F 40.9 °F 29.92 in Calm     77 % 0.00 in 0.0 W/m2 CLR
20:52 47.4 °F 40.6 °F 29.92 in Calm     77 % 0.00 in 0.0 W/m2 CLR
20:57 47.0 °F 40.2 °F 29.92 in Calm     77 % 0.00 in 0.0 W/m2 CLR
21:02 46.8 °F 40.3 °F 29.92 in Calm     78 % 0.00 in 0.0 W/m2 CLR
21:07 46.6 °F 40.1 °F 29.92 in Calm     78 % 0.00 in 0.0 W/m2 CLR
21:09 46.5 °F 40.0 °F 29.92 in Calm     78 % 0.00 in 0.0 W/m2 OVC
21:14 46.4 °F 40.2 °F 29.92 in Calm     79 % 0.00 in 0.0 W/m2 OVC
21:19 46.3 °F 40.1 °F 29.92 in Calm     79 % 0.00 in 0.0 W/m2 OVC
21:24 46.1 °F 39.9 °F 29.92 in Calm     79 % 0.00 in 0.0 W/m2 OVC
21:29 45.7 °F 39.9 °F 29.92 in Calm     80 % 0.00 in 0.0 W/m2 OVC
21:34 45.6 °F 39.8 °F 29.92 in Calm     80 % 0.00 in 0.0 W/m2 OVC
21:39 45.5 °F 39.7 °F 29.92 in Calm     80 % 0.00 in 0.0 W/m2 OVC
21:44 45.2 °F 39.4 °F 29.92 in Calm     80 % 0.00 in 0.0 W/m2 OVC
21:49 45.0 °F 39.5 °F 29.92 in Calm     81 % 0.00 in 0.0 W/m2 OVC
21:54 44.9 °F 39.4 °F 29.92 in Calm     81 % 0.00 in 0.0 W/m2 OVC
21:59 44.9 °F 39.4 °F 29.92 in Calm     81 % 0.00 in 0.0 W/m2 OVC
22:04 44.4 °F 39.2 °F 29.92 in Calm     82 % 0.00 in 0.0 W/m2 OVC
22:09 44.2 °F 39.1 °F 29.92 in Calm     82 % 0.00 in 0.0 W/m2 OVC
22:14 43.8 °F 38.7 °F 29.91 in Calm     82 % 0.00 in 0.0 W/m2 OVC
22:19 43.8 °F 39.0 °F 29.91 in Calm     83 % 0.00 in 0.0 W/m2 OVC
22:24 43.9 °F 39.1 °F 29.91 in Calm     83 % 0.00 in 0.0 W/m2 OVC
22:29 43.7 °F 38.9 °F 29.91 in Calm     83 % 0.00 in 0.0 W/m2 OVC
22:34 43.7 °F 38.9 °F 29.91 in Calm     83 % 0.00 in 0.0 W/m2 OVC
22:39 43.6 °F 38.8 °F 29.91 in Calm     83 % 0.00 in 0.0 W/m2 OVC
22:44 43.4 °F 38.6 °F 29.91 in Calm     83 % 0.00 in 0.0 W/m2 OVC
22:49 43.2 °F 38.4 °F 29.91 in Calm     83 % 0.00 in 0.0 W/m2 OVC
22:54 43.2 °F 38.7 °F 29.91 in Calm     84 % 0.00 in 0.0 W/m2 OVC
22:59 42.9 °F 38.4 °F 29.91 in Calm     84 % 0.00 in 0.0 W/m2 OVC
23:04 42.6 °F 38.1 °F 29.91 in Calm     84 % 0.00 in 0.0 W/m2 OVC
23:09 42.5 °F 38.0 °F 29.91 in Calm     84 % 0.00 in 0.0 W/m2 OVC
23:14 42.4 °F 37.9 °F 29.91 in Calm     84 % 0.00 in 0.0 W/m2 OVC
23:19 42.3 °F 37.8 °F 29.91 in Calm     84 % 0.00 in 0.0 W/m2 OVC
23:24 42.1 °F 37.9 °F 29.91 in Calm     85 % 0.00 in 0.0 W/m2 OVC
23:29 41.8 °F 37.6 °F 29.91 in Calm     85 % 0.00 in 0.0 W/m2 OVC
23:34 41.5 °F 37.3 °F 29.91 in Calm     85 % 0.00 in 0.0 W/m2 OVC
23:39 41.5 °F 37.3 °F 29.91 in Calm     85 % 0.00 in 0.0 W/m2 OVC
23:44 41.3 °F 37.1 °F 29.91 in Calm     85 % 0.00 in 0.0 W/m2 OVC
23:49 41.2 °F 37.3 °F 29.91 in Calm     86 % 0.00 in 0.0 W/m2 OVC
23:54 41.1 °F 37.2 °F 29.90 in Calm     86 % 0.00 in 0.0 W/m2 OVC
23:59 41.1 °F 37.2 °F 29.91 in Calm     86 % 0.00 in 0.0 W/m2 OVC
Air Products Campus Weather
Compliments of Weather Underground - 3.5 mb